createdAt,value
2023-11-26T00:01:48.275Z,5.60
2023-11-26T00:04:50.167Z,5.50
2023-11-26T00:07:52.726Z,5.50
2023-11-26T00:10:55.880Z,5.50
2023-11-26T00:13:58.418Z,5.50
2023-11-26T00:17:00.734Z,5.50
2023-11-26T00:20:02.650Z,5.40
2023-11-26T00:23:04.621Z,5.40
2023-11-26T00:26:07.192Z,5.40
2023-11-26T00:29:09.105Z,5.30
2023-11-26T00:32:11.257Z,5.40
2023-11-26T00:35:13.752Z,5.30
2023-11-26T00:38:15.692Z,5.40
2023-11-26T00:41:17.658Z,5.30
2023-11-26T00:44:19.493Z,5.30
2023-11-26T00:47:22.088Z,5.30
2023-11-26T00:50:24.281Z,5.30
2023-11-26T00:53:26.209Z,5.30
2023-11-26T00:56:28.048Z,5.30
2023-11-26T00:59:29.852Z,5.30
2023-11-26T01:02:34.416Z,5.20
2023-11-26T01:05:36.477Z,5.20
2023-11-26T01:08:38.326Z,5.20
2023-11-26T01:11:40.134Z,5.10
2023-11-26T01:14:41.902Z,5.20
2023-11-26T01:17:44.105Z,5.20
2023-11-26T01:20:46.288Z,5.10
2023-11-26T01:23:48.524Z,5.10
2023-11-26T01:26:50.750Z,5.10
2023-11-26T01:29:52.521Z,5.10
2023-11-26T01:32:54.467Z,5.10
2023-11-26T01:35:56.355Z,5.00
2023-11-26T01:38:58.221Z,5.00
2023-11-26T01:42:00.240Z,5.00
2023-11-26T01:45:01.971Z,4.90
2023-11-26T01:48:04.591Z,4.90
2023-11-26T01:51:10.433Z,4.90
2023-11-26T01:54:12.343Z,4.90
2023-11-26T01:57:16.422Z,4.80
2023-11-26T02:00:21.068Z,4.90
2023-11-26T02:03:23.527Z,4.90
2023-11-26T02:06:26.194Z,4.80
2023-11-26T02:09:29.206Z,4.80
2023-11-26T02:12:30.980Z,4.90
2023-11-26T02:15:36.208Z,4.90
2023-11-26T02:18:38.109Z,4.90
2023-11-26T02:21:39.908Z,4.90
2023-11-26T02:24:45.094Z,4.80
2023-11-26T02:27:47.579Z,4.80
2023-11-26T02:30:49.646Z,4.90
2023-11-26T02:33:55.137Z,4.80
2023-11-26T02:36:58.002Z,4.90
2023-11-26T02:39:59.802Z,4.90
2023-11-26T02:43:02.362Z,4.90
2023-11-26T02:46:04.223Z,4.90
2023-11-26T02:49:06.088Z,5.00
2023-11-26T02:52:07.825Z,5.00
2023-11-26T02:55:09.999Z,5.00
2023-11-26T02:58:14.255Z,5.00
2023-11-26T03:01:29.547Z,5.00
2023-11-26T03:04:31.506Z,5.00
2023-11-26T03:07:35.714Z,5.00
2023-11-26T03:10:57.663Z,5.00
2023-11-26T03:13:59.727Z,5.00
2023-11-26T03:17:01.720Z,5.10
2023-11-26T03:20:04.240Z,5.10
2023-11-26T03:23:06.107Z,5.10
2023-11-26T03:26:08.223Z,5.20
2023-11-26T03:29:10.872Z,5.20
2023-11-26T03:32:12.958Z,5.30
2023-11-26T03:35:14.841Z,5.30
2023-11-26T03:38:17.558Z,5.30
2023-11-26T03:41:20.043Z,5.30
2023-11-26T03:44:21.993Z,5.40
2023-11-26T03:47:24.697Z,5.40
2023-11-26T03:50:27.344Z,5.40
2023-11-26T03:53:29.788Z,5.40
2023-11-26T03:56:31.674Z,5.40
2023-11-26T03:59:33.558Z,5.50
2023-11-26T04:02:36.583Z,5.50
2023-11-26T04:05:38.426Z,5.50
2023-11-26T04:08:40.290Z,5.50
2023-11-26T04:11:45.556Z,5.50
2023-11-26T04:14:58.096Z,5.50
2023-11-26T04:18:00.268Z,5.50
2023-11-26T04:21:02.676Z,5.50
2023-11-26T04:24:04.758Z,5.60
2023-11-26T04:27:06.762Z,5.60
2023-11-26T04:30:09.474Z,5.70
2023-11-26T04:33:11.660Z,5.60
2023-11-26T04:36:14.149Z,5.60
2023-11-26T04:39:15.928Z,5.60
2023-11-26T04:42:18.716Z,5.60
2023-11-26T04:45:20.886Z,5.60
2023-11-26T04:48:22.712Z,5.60
2023-11-26T04:51:24.663Z,5.70
2023-11-26T04:54:28.062Z,5.70
2023-11-26T04:57:31.244Z,5.70
2023-11-26T05:00:33.182Z,5.70
2023-11-26T05:03:35.096Z,5.70
2023-11-26T05:06:36.874Z,5.70
2023-11-26T05:09:38.696Z,5.70
2023-11-26T05:12:40.504Z,5.70
2023-11-26T05:15:42.460Z,5.70
2023-11-26T05:18:44.926Z,5.80
2023-11-26T05:21:47.940Z,5.80
2023-11-26T05:24:50.102Z,5.80
2023-11-26T05:27:52.220Z,5.80
2023-11-26T05:30:55.038Z,5.80
2023-11-26T05:33:57.692Z,5.80
2023-11-26T05:37:01.719Z,5.80
2023-11-26T05:40:03.663Z,5.80
2023-11-26T05:43:05.654Z,5.80
2023-11-26T05:46:08.393Z,5.90
2023-11-26T05:49:10.465Z,5.90
2023-11-26T05:52:12.461Z,5.90
2023-11-26T05:55:14.419Z,5.90
2023-11-26T05:58:16.167Z,5.90
2023-11-26T06:01:25.572Z,5.90
2023-11-26T06:04:27.514Z,5.90
2023-11-26T06:07:29.393Z,5.90
2023-11-26T06:10:34.683Z,5.90
2023-11-26T06:13:36.449Z,5.90
2023-11-26T06:16:38.406Z,5.90
2023-11-26T06:19:40.329Z,5.90
2023-11-26T06:22:43.319Z,5.90
2023-11-26T06:25:45.290Z,6.00
2023-11-26T06:28:47.097Z,5.90
2023-11-26T06:31:49.203Z,5.90
2023-11-26T06:34:51.032Z,5.90
2023-11-26T06:37:52.812Z,5.90
2023-11-26T06:40:54.603Z,5.90
2023-11-26T06:43:57.824Z,5.90
2023-11-26T06:46:59.950Z,6.00
2023-11-26T06:50:01.834Z,6.00
2023-11-26T06:53:04.266Z,6.00
2023-11-26T06:56:07.646Z,6.00
2023-11-26T06:59:09.721Z,6.00
2023-11-26T07:02:11.950Z,6.00
2023-11-26T07:05:14.099Z,6.00
2023-11-26T07:08:15.961Z,6.00
2023-11-26T07:11:25.459Z,6.00
2023-11-26T07:14:27.923Z,6.00
2023-11-26T07:17:31.016Z,6.00
2023-11-26T07:20:35.029Z,6.00
2023-11-26T07:23:37.884Z,6.00
2023-11-26T07:26:40.186Z,6.00
2023-11-26T07:29:42.000Z,6.00
2023-11-26T07:32:44.788Z,6.00
2023-11-26T07:35:46.703Z,6.00
2023-11-26T07:38:48.471Z,6.10
2023-11-26T07:41:50.256Z,6.10
2023-11-26T07:44:52.099Z,6.10
2023-11-26T07:47:54.009Z,6.10
2023-11-26T07:50:56.593Z,6.10
2023-11-26T07:53:58.380Z,6.10
2023-11-26T07:57:00.103Z,6.20
2023-11-26T08:00:03.653Z,6.20
2023-11-26T08:03:06.173Z,6.20
2023-11-26T08:06:14.240Z,6.20
2023-11-26T08:09:17.118Z,6.20
2023-11-26T08:12:21.520Z,6.20
2023-11-26T08:15:25.367Z,6.20
2023-11-26T08:18:27.287Z,6.20
2023-11-26T08:21:32.618Z,6.20
2023-11-26T08:24:37.559Z,6.20
2023-11-26T08:27:46.300Z,6.20
2023-11-26T08:30:49.276Z,6.30
2023-11-26T08:33:51.900Z,6.30
2023-11-26T08:36:53.741Z,6.30
2023-11-26T08:39:55.637Z,6.30
2023-11-26T08:42:57.556Z,6.30
2023-11-26T08:46:04.161Z,6.30
2023-11-26T08:49:09.612Z,6.30
2023-11-26T08:52:11.782Z,6.40
2023-11-26T08:55:13.629Z,6.40
2023-11-26T08:58:15.529Z,6.40
2023-11-26T09:01:17.374Z,6.40
2023-11-26T09:04:19.196Z,6.50
2023-11-26T09:07:21.201Z,6.50
2023-11-26T09:10:23.122Z,6.50
2023-11-26T09:13:25.816Z,6.50
2023-11-26T09:16:30.985Z,6.50
2023-11-26T09:19:33.052Z,6.60
2023-11-26T09:22:34.783Z,6.60
2023-11-26T09:25:38.084Z,6.60
2023-11-26T09:28:40.248Z,6.70
2023-11-26T09:31:45.720Z,6.70
2023-11-26T09:34:50.916Z,6.70
2023-11-26T09:37:55.032Z,6.70
2023-11-26T09:40:56.761Z,6.80
2023-11-26T09:46:57.732Z,6.80
2023-11-26T09:49:59.635Z,7.00
2023-11-26T09:53:02.805Z,7.00
2023-11-26T09:56:07.829Z,7.00
2023-11-26T09:59:25.216Z,7.00
2023-11-26T10:02:27.221Z,6.90
2023-11-26T10:05:29.688Z,7.00
2023-11-26T10:08:33.292Z,7.00
2023-11-26T10:11:35.286Z,7.00
2023-11-26T10:14:40.442Z,7.00
2023-11-26T10:17:42.380Z,7.00
2023-11-26T10:20:46.454Z,7.00
2023-11-26T10:23:48.703Z,7.00
2023-11-26T10:26:53.254Z,7.00
2023-11-26T10:29:55.153Z,7.00
2023-11-26T10:33:03.765Z,7.00
2023-11-26T10:36:06.258Z,7.00
2023-11-26T10:39:11.051Z,7.00
2023-11-26T10:42:13.551Z,7.10
2023-11-26T10:45:18.540Z,7.10
2023-11-26T10:48:23.953Z,7.10
2023-11-26T10:51:29.517Z,7.10
2023-11-26T10:54:38.787Z,7.10
2023-11-26T10:57:42.722Z,7.10
2023-11-26T11:00:49.989Z,7.10
2023-11-26T11:03:53.372Z,7.10
2023-11-26T11:06:55.212Z,7.10
2023-11-26T11:10:03.766Z,7.10
2023-11-26T11:13:17.896Z,7.10
2023-11-26T11:16:19.883Z,7.10
2023-11-26T11:19:57.049Z,7.10
2023-11-26T11:23:00.698Z,7.10
2023-11-26T11:26:03.539Z,7.10
2023-11-26T11:29:05.530Z,7.20
2023-11-26T11:32:07.557Z,7.10
2023-11-26T11:35:37.601Z,7.20
2023-11-26T11:39:05.604Z,7.10
2023-11-26T11:42:08.852Z,7.20
2023-11-26T11:45:29.362Z,7.10
2023-11-26T11:48:43.741Z,7.10
2023-11-26T11:51:45.742Z,7.10
2023-11-26T11:54:59.425Z,7.10
2023-11-26T11:58:13.617Z,7.10
2023-11-26T12:01:18.734Z,7.10
2023-11-26T12:04:37.031Z,7.10
2023-11-26T12:07:39.160Z,7.10
2023-11-26T12:10:41.129Z,7.00
2023-11-26T12:13:45.884Z,7.10
2023-11-26T12:16:47.742Z,7.10
2023-11-26T12:19:56.259Z,7.00
2023-11-26T12:22:58.976Z,7.00
2023-11-26T12:26:01.938Z,7.00
2023-11-26T12:29:03.704Z,7.00
2023-11-26T12:32:09.708Z,7.00
2023-11-26T12:35:16.469Z,7.00
2023-11-26T12:38:25.454Z,7.00
2023-11-26T12:41:27.729Z,7.10
2023-11-26T12:44:31.798Z,7.00
2023-11-26T12:47:34.071Z,7.00
2023-11-26T12:50:45.761Z,7.10
2023-11-26T12:53:54.111Z,7.00
2023-11-26T12:56:59.246Z,7.00
2023-11-26T13:00:02.500Z,7.00
2023-11-26T13:03:07.744Z,7.00
2023-11-26T13:06:10.782Z,7.00
2023-11-26T13:09:13.970Z,7.00
2023-11-26T13:12:16.341Z,7.00
2023-11-26T13:15:18.556Z,7.00
2023-11-26T13:18:20.697Z,7.00
2023-11-26T13:22:27.056Z,7.00
2023-11-26T13:25:30.730Z,7.00
2023-11-26T13:28:34.399Z,7.00
2023-11-26T13:31:36.506Z,7.00
2023-11-26T13:34:39.240Z,7.00
2023-11-26T13:37:41.437Z,7.00
2023-11-26T13:40:45.318Z,7.00
2023-11-26T13:43:47.524Z,7.00
2023-11-26T13:46:49.582Z,7.00
2023-11-26T13:49:51.321Z,7.00
2023-11-26T13:52:53.198Z,7.10
2023-11-26T13:55:55.378Z,7.00
2023-11-26T13:58:57.543Z,7.00
2023-11-26T14:01:59.627Z,7.00
2023-11-26T14:05:03.722Z,7.00
2023-11-26T14:08:08.697Z,7.00
2023-11-26T14:11:12.242Z,7.00
2023-11-26T14:14:14.980Z,7.00
2023-11-26T14:17:16.824Z,7.00
2023-11-26T14:20:21.077Z,7.00
2023-11-26T14:23:23.790Z,7.10
2023-11-26T14:26:26.610Z,7.00
2023-11-26T14:29:28.679Z,7.00
2023-11-26T14:32:30.929Z,7.00
2023-11-26T14:35:33.843Z,7.00
2023-11-26T14:38:35.749Z,7.00
2023-11-26T14:41:37.797Z,7.00
2023-11-26T14:44:39.922Z,7.00
2023-11-26T14:47:48.749Z,7.00
2023-11-26T14:50:50.708Z,6.90
2023-11-26T14:53:52.592Z,7.00
2023-11-26T14:56:54.379Z,7.00
2023-11-26T14:59:57.154Z,7.00
2023-11-26T15:02:59.189Z,7.00
2023-11-26T15:06:01.162Z,7.00
2023-11-26T15:09:05.278Z,6.90
2023-11-26T15:12:08.562Z,6.90
2023-11-26T15:15:12.427Z,6.90
2023-11-26T15:18:15.665Z,6.90
2023-11-26T15:21:18.784Z,6.90
2023-11-26T15:24:20.573Z,6.90
2023-11-26T15:27:22.576Z,6.90
2023-11-26T15:30:24.595Z,6.90
2023-11-26T15:33:26.765Z,6.90
2023-11-26T15:36:28.872Z,6.80
2023-11-26T15:39:30.868Z,6.90
2023-11-26T15:42:32.821Z,6.80
2023-11-26T15:45:34.659Z,6.80
2023-11-26T15:51:43.861Z,6.80
2023-11-26T15:54:45.892Z,6.70
2023-11-26T15:57:48.524Z,6.70
2023-11-26T16:00:50.497Z,6.70
2023-11-26T16:03:52.387Z,6.70
2023-11-26T16:06:54.247Z,6.70
2023-11-26T16:09:56.301Z,6.70
2023-11-26T16:12:58.130Z,6.70
2023-11-26T16:16:00.091Z,6.70
2023-11-26T16:19:02.045Z,6.70
2023-11-26T16:22:04.972Z,6.70
2023-11-26T16:25:10.369Z,6.70
2023-11-26T16:28:12.749Z,6.70
2023-11-26T16:31:15.726Z,6.70
2023-11-26T16:34:17.579Z,6.70
2023-11-26T16:37:19.456Z,6.70
2023-11-26T16:40:21.605Z,6.60
2023-11-26T16:43:23.479Z,6.60
2023-11-26T16:46:28.330Z,6.60
2023-11-26T16:49:31.925Z,6.60
2023-11-26T16:52:33.937Z,6.70
2023-11-26T16:55:35.968Z,6.60
2023-11-26T16:58:38.933Z,6.60
2023-11-26T17:01:41.027Z,6.60
2023-11-26T17:04:43.079Z,6.60
2023-11-26T17:07:45.050Z,6.60
2023-11-26T17:10:47.743Z,6.60
2023-11-26T17:13:49.621Z,6.60
2023-11-26T17:16:51.541Z,6.50
2023-11-26T17:19:53.531Z,6.50
2023-11-26T17:22:55.327Z,6.50
2023-11-26T17:25:57.935Z,6.50
2023-11-26T17:28:59.691Z,6.50
2023-11-26T17:32:01.715Z,6.50
2023-11-26T17:35:03.700Z,6.40
2023-11-26T17:38:05.481Z,6.40
2023-11-26T17:41:07.606Z,6.50
2023-11-26T17:44:09.417Z,6.40
2023-11-26T17:47:13.339Z,6.50
2023-11-26T17:50:15.094Z,6.40
2023-11-26T17:53:18.204Z,6.40
2023-11-26T17:56:20.406Z,6.40
2023-11-26T17:59:22.284Z,6.40
2023-11-26T18:02:24.186Z,6.40
2023-11-26T18:05:26.446Z,6.30
2023-11-26T18:08:28.364Z,6.30
2023-11-26T18:11:32.725Z,6.40
2023-11-26T18:14:34.675Z,6.30
2023-11-26T18:17:36.968Z,6.30
2023-11-26T18:20:38.709Z,6.30
2023-11-26T18:23:41.579Z,6.30
2023-11-26T18:26:46.888Z,6.30
2023-11-26T18:29:48.805Z,6.30
2023-11-26T18:32:50.627Z,6.30
2023-11-26T18:35:52.585Z,6.20
2023-11-26T18:38:55.031Z,6.30
2023-11-26T18:41:56.980Z,6.20
2023-11-26T18:44:58.882Z,6.20
2023-11-26T18:48:02.482Z,6.20
2023-11-26T18:51:06.061Z,6.20
2023-11-26T18:54:10.418Z,6.20
2023-11-26T18:57:12.508Z,6.20
2023-11-26T19:00:15.139Z,6.10
2023-11-26T19:03:17.065Z,6.10
2023-11-26T19:06:19.114Z,6.10
2023-11-26T19:09:21.169Z,6.20
2023-11-26T19:12:23.040Z,6.10
2023-11-26T19:15:24.858Z,6.10
2023-11-26T19:18:26.615Z,6.20
2023-11-26T19:21:28.570Z,6.10
2023-11-26T19:24:31.141Z,6.10
2023-11-26T19:27:35.271Z,6.10
2023-11-26T19:30:38.109Z,6.10
2023-11-26T19:33:39.955Z,6.00
2023-11-26T19:36:41.811Z,6.10
2023-11-26T19:39:44.665Z,6.10
2023-11-26T19:42:46.777Z,6.10
2023-11-26T19:45:48.669Z,6.00
2023-11-26T19:48:57.232Z,6.00
2023-11-26T19:51:59.391Z,6.00
2023-11-26T19:55:02.000Z,6.00
2023-11-26T19:58:04.270Z,6.00
2023-11-26T20:01:08.765Z,5.90
2023-11-26T20:04:10.728Z,6.00
2023-11-26T20:07:13.313Z,5.90
2023-11-26T20:10:21.488Z,5.90
2023-11-26T20:13:23.397Z,5.90
2023-11-26T20:16:25.998Z,6.00
2023-11-26T20:19:27.923Z,5.90
2023-11-26T20:22:30.882Z,5.90
2023-11-26T20:25:34.306Z,5.90
2023-11-26T20:28:36.534Z,5.90
2023-11-26T20:31:38.637Z,5.90
2023-11-26T20:34:41.617Z,5.90
2023-11-26T20:37:43.698Z,5.80
2023-11-26T20:40:45.760Z,5.80
2023-11-26T20:43:47.488Z,5.80
2023-11-26T20:46:49.449Z,5.90
2023-11-26T20:49:51.333Z,5.90
2023-11-26T20:52:53.256Z,5.80
2023-11-26T20:55:55.126Z,5.90
2023-11-26T20:58:59.257Z,5.90
2023-11-26T21:02:02.014Z,5.80
2023-11-26T21:05:04.980Z,5.90
2023-11-26T21:08:06.929Z,5.90
2023-11-26T21:11:10.961Z,5.90
2023-11-26T21:14:13.987Z,5.80
2023-11-26T21:17:16.066Z,5.90
2023-11-26T21:20:18.396Z,5.90
2023-11-26T21:23:20.604Z,5.90
2023-11-26T21:26:22.405Z,5.80
2023-11-26T21:29:24.380Z,5.80
2023-11-26T21:32:26.244Z,5.90
2023-11-26T21:35:29.116Z,5.80
2023-11-26T21:38:32.357Z,5.80
2023-11-26T21:41:34.299Z,5.80
2023-11-26T21:44:36.173Z,5.80
2023-11-26T21:47:38.451Z,5.80
2023-11-26T21:50:40.281Z,5.80
2023-11-26T21:53:42.729Z,5.90
2023-11-26T21:56:44.569Z,5.90
2023-11-26T21:59:46.290Z,5.80
2023-11-26T22:02:48.121Z,5.80
2023-11-26T22:05:50.673Z,5.80
2023-11-26T22:08:53.031Z,5.80
2023-11-26T22:11:54.775Z,5.80
2023-11-26T22:14:56.505Z,5.90
2023-11-26T22:17:58.305Z,5.80
2023-11-26T22:21:01.038Z,5.90
2023-11-26T22:24:05.878Z,5.80
2023-11-26T22:27:09.512Z,5.80
2023-11-26T22:30:12.920Z,5.80
2023-11-26T22:33:15.390Z,5.80
2023-11-26T22:36:22.066Z,5.80
2023-11-26T22:39:23.834Z,5.70
2023-11-26T22:42:25.904Z,5.70
2023-11-26T22:45:27.956Z,5.80
2023-11-26T22:48:29.926Z,5.80
2023-11-26T22:51:34.609Z,5.80
2023-11-26T22:54:36.453Z,5.80
2023-11-26T22:57:38.330Z,5.80
2023-11-26T23:00:41.963Z,5.80
2023-11-26T23:03:44.017Z,5.80
2023-11-26T23:06:45.881Z,5.90
2023-11-26T23:09:48.725Z,5.90
2023-11-26T23:12:50.806Z,5.80
2023-11-26T23:15:52.620Z,5.80
2023-11-26T23:18:54.464Z,5.80
2023-11-26T23:21:57.109Z,5.80
2023-11-26T23:25:00.490Z,5.80
2023-11-26T23:28:02.571Z,5.90
2023-11-26T23:31:04.601Z,5.80
2023-11-26T23:34:06.946Z,5.80
2023-11-26T23:37:08.883Z,5.80
2023-11-26T23:40:11.371Z,5.80
2023-11-26T23:43:16.525Z,5.80
2023-11-26T23:46:18.506Z,5.80
2023-11-26T23:49:20.462Z,5.80
2023-11-26T23:52:22.216Z,5.80
2023-11-26T23:55:24.357Z,5.80
2023-11-26T23:58:26.969Z,5.80
